Time;durP1;ratioP1;P1;durP2;ratioP2;P2;SDS_P1;SDS_P2;PMS_P1;PMS_P2;Temp;Humidity;BMP_temperature;BMP_pressure;BME280_temperature;BME280_humidity;BME280_pressure;Samples;Min_cycle;Max_cycle;Signal;HPM_P1;HPM_P2
2023/05/27 00:01:54;;;;;;;6.07;3.00;;;15.00;55.20;;;;;;961640;149;27344;-76
2023/05/27 00:04:21;;;;;;;7.40;3.37;;;15.00;55.30;;;;;;961335;149;27732;-76
2023/05/27 00:06:48;;;;;;;5.00;2.83;;;15.00;55.30;;;;;;961763;146;27260;-76
2023/05/27 00:09:14;;;;;;;5.70;3.10;;;14.90;55.50;;;;;;961710;149;27378;-76
2023/05/27 00:11:41;;;;;;;6.43;2.80;;;14.90;55.50;;;;;;961458;147;27338;-75
2023/05/27 00:14:07;;;;;;;8.20;3.40;;;14.80;55.50;;;;;;960818;147;27751;-75
2023/05/27 00:16:36;;;;;;;4.87;2.70;;;14.80;55.60;;;;;;961857;147;27342;-76
2023/05/27 00:19:01;;;;;;;4.63;2.50;;;14.80;55.60;;;;;;961986;149;27293;-75
2023/05/27 00:21:27;;;;;;;8.60;3.10;;;14.70;55.70;;;;;;961538;148;27320;-75
2023/05/27 00:23:54;;;;;;;5.30;2.30;;;14.70;55.80;;;;;;962101;149;27428;-75
2023/05/27 00:26:21;;;;;;;3.43;2.30;;;14.60;55.80;;;;;;961821;147;27386;-75
2023/05/27 00:28:47;;;;;;;5.43;2.40;;;14.60;55.90;;;;;;960955;149;27313;-75
2023/05/27 00:31:14;;;;;;;8.50;2.83;;;14.60;56.00;;;;;;961991;147;27397;-76
2023/05/27 00:33:40;;;;;;;5.43;2.90;;;14.60;56.10;;;;;;961421;146;27352;-75
2023/05/27 00:36:07;;;;;;;6.73;2.43;;;14.50;56.20;;;;;;961898;146;27316;-75
2023/05/27 00:38:33;;;;;;;8.30;3.03;;;14.50;56.20;;;;;;960794;147;27332;-75
2023/05/27 00:41:01;;;;;;;7.63;3.17;;;14.50;56.20;;;;;;962119;147;27401;-75
2023/05/27 00:43:26;;;;;;;6.33;2.60;;;14.50;56.30;;;;;;961962;147;27292;-75
2023/05/27 00:45:53;;;;;;;5.93;2.90;;;14.40;56.40;;;;;;962440;146;27323;-74
2023/05/27 00:48:20;;;;;;;7.17;3.17;;;14.40;56.40;;;;;;961566;149;27308;-74
2023/05/27 00:50:46;;;;;;;8.53;2.90;;;14.40;56.60;;;;;;961602;146;27272;-74
2023/05/27 00:53:13;;;;;;;7.43;2.53;;;14.30;56.60;;;;;;943812;150;27367;-76
2023/05/27 00:55:40;;;;;;;6.00;2.27;;;14.30;56.70;;;;;;954548;147;27420;-75
2023/05/27 00:58:09;;;;;;;4.73;2.33;;;14.30;56.80;;;;;;947243;151;27340;-73
2023/05/27 01:00:33;;;;;;;7.83;3.10;;;14.20;56.80;;;;;;947029;149;27333;-74
2023/05/27 01:02:59;;;;;;;5.53;2.53;;;14.20;56.80;;;;;;947675;149;27373;-73
2023/05/27 01:05:27;;;;;;;7.50;2.60;;;14.20;56.90;;;;;;947036;148;27356;-74
2023/05/27 01:08:14;;;;;;;4.37;2.27;;;14.10;57.00;;;;;;947063;149;27349;-74
2023/05/27 01:10:49;;;;;;;5.27;2.77;;;14.10;57.00;;;;;;946226;149;27384;-74
2023/05/27 01:13:27;;;;;;;8.50;3.00;;;14.10;57.00;;;;;;947505;149;27273;-75
2023/05/27 01:15:54;;;;;;;5.03;2.57;;;14.00;57.10;;;;;;946723;148;27353;-74
2023/05/27 01:18:22;;;;;;;5.50;2.70;;;14.00;57.30;;;;;;947226;149;27384;-74
2023/05/27 01:20:47;;;;;;;7.10;3.53;;;13.90;57.40;;;;;;946836;148;27348;-73
2023/05/27 01:23:14;;;;;;;6.27;2.70;;;13.90;57.40;;;;;;947086;149;27399;-75
2023/05/27 01:25:40;;;;;;;5.67;2.87;;;13.90;57.50;;;;;;946810;148;27388;-75
2023/05/27 01:28:07;;;;;;;7.40;2.70;;;13.80;57.50;;;;;;946050;148;27377;-75
2023/05/27 01:30:34;;;;;;;4.83;2.60;;;13.80;57.60;;;;;;947179;148;27370;-75
2023/05/27 01:33:09;;;;;;;13.03;2.70;;;13.70;57.70;;;;;;947934;148;27670;-74
2023/05/27 01:35:36;;;;;;;4.83;2.60;;;13.70;57.70;;;;;;947263;149;27369;-74
2023/05/27 01:38:02;;;;;;;4.93;2.70;;;13.70;57.70;;;;;;946603;151;27353;-75
2023/05/27 01:40:29;;;;;;;7.03;2.57;;;13.60;57.80;;;;;;945872;151;27446;-75
2023/05/27 01:42:55;;;;;;;4.73;2.67;;;13.60;58.00;;;;;;947373;151;27418;-75
2023/05/27 01:45:22;;;;;;;4.17;2.30;;;13.60;58.10;;;;;;947164;148;27427;-75
2023/05/27 01:47:49;;;;;;;5.10;2.73;;;13.50;58.20;;;;;;947482;151;27381;-74
2023/05/27 01:50:15;;;;;;;6.40;2.80;;;13.50;58.20;;;;;;947270;150;27353;-75
2023/05/27 01:52:42;;;;;;;5.90;2.60;;;13.50;58.30;;;;;;946696;151;27337;-75
2023/05/27 01:55:08;;;;;;;4.53;2.60;;;13.40;58.40;;;;;;946837;151;27258;-74
2023/05/27 01:57:35;;;;;;;7.90;2.90;;;13.40;58.40;;;;;;947369;151;27321;-74
2023/05/27 02:00:02;;;;;;;4.73;2.60;;;13.40;58.40;;;;;;947221;148;27407;-75
2023/05/27 02:02:29;;;;;;;4.63;2.70;;;13.30;58.50;;;;;;947279;151;27399;-74
2023/05/27 02:04:55;;;;;;;5.53;2.57;;;13.30;58.60;;;;;;944994;149;27259;-74
2023/05/27 02:07:22;;;;;;;7.30;2.40;;;13.30;58.70;;;;;;942276;149;27319;-74
2023/05/27 02:09:48;;;;;;;8.90;2.93;;;13.30;58.60;;;;;;939450;149;27415;-75
2023/05/27 02:12:15;;;;;;;4.17;2.27;;;13.20;58.80;;;;;;961061;147;27352;-74
2023/05/27 02:14:41;;;;;;;5.97;2.80;;;13.20;58.80;;;;;;945434;149;27341;-74
2023/05/27 02:17:08;;;;;;;8.77;2.93;;;13.10;58.90;;;;;;945651;149;27403;-73
2023/05/27 02:19:35;;;;;;;6.13;2.63;;;13.10;58.90;;;;;;944743;150;27396;-73
2023/05/27 02:22:01;;;;;;;6.73;2.77;;;13.10;59.10;;;;;;960020;147;27381;-74
2023/05/27 02:24:27;;;;;;;9.67;2.97;;;13.00;59.20;;;;;;961524;149;27236;-74
2023/05/27 02:26:54;;;;;;;6.87;2.83;;;13.00;59.30;;;;;;943808;150;27405;-74
2023/05/27 02:29:21;;;;;;;5.10;2.87;;;12.90;59.50;;;;;;939967;149;27420;-75
2023/05/27 02:31:47;;;;;;;6.63;2.50;;;12.90;59.50;;;;;;938933;149;27473;-73
2023/05/27 02:34:14;;;;;;;3.70;2.53;;;12.80;59.50;;;;;;939508;149;27273;-74
2023/05/27 02:36:40;;;;;;;6.10;2.87;;;12.80;59.60;;;;;;950673;147;27314;-74
2023/05/27 02:39:08;;;;;;;7.30;2.90;;;12.70;59.60;;;;;;937000;149;27350;-75
2023/05/27 02:41:34;;;;;;;8.07;3.10;;;12.70;59.80;;;;;;948748;146;27429;-76
2023/05/27 02:44:00;;;;;;;5.97;2.80;;;12.70;59.80;;;;;;928151;149;27810;-75
2023/05/27 02:46:27;;;;;;;5.63;2.60;;;12.60;60.00;;;;;;932653;149;27407;-76
2023/05/27 02:48:53;;;;;;;10.37;3.10;;;12.60;60.10;;;;;;951425;147;27278;-76
2023/05/27 02:51:20;;;;;;;7.37;2.70;;;12.50;60.20;;;;;;951222;147;27321;-75
2023/05/27 02:53:46;;;;;;;6.47;3.00;;;12.50;60.20;;;;;;951592;147;27328;-76
2023/05/27 02:56:13;;;;;;;6.53;3.00;;;12.50;60.30;;;;;;950888;147;27338;-75
2023/05/27 02:58:40;;;;;;;7.03;2.43;;;12.40;60.40;;;;;;951456;147;27302;-76
2023/05/27 03:01:06;;;;;;;5.47;2.60;;;12.40;60.60;;;;;;950902;147;27263;-76
2023/05/27 03:03:33;;;;;;;8.77;3.70;;;12.40;60.60;;;;;;939963;149;27830;-76
2023/05/27 03:06:00;;;;;;;6.03;3.03;;;12.30;60.70;;;;;;949454;147;27420;-76
2023/05/27 03:08:26;;;;;;;4.50;2.70;;;12.30;60.90;;;;;;927000;151;27407;-75
2023/05/27 03:10:53;;;;;;;5.90;2.73;;;12.30;60.90;;;;;;949794;147;27298;-75
2023/05/27 03:13:19;;;;;;;7.03;3.43;;;12.30;61.10;;;;;;950982;147;27260;-75
2023/05/27 03:15:46;;;;;;;5.20;2.33;;;12.30;61.20;;;;;;950755;147;27319;-75
2023/05/27 03:18:12;;;;;;;4.83;3.00;;;12.20;61.20;;;;;;948835;147;27692;-74
2023/05/27 03:20:39;;;;;;;7.83;2.83;;;12.20;61.20;;;;;;929791;150;27347;-74
2023/05/27 03:23:06;;;;;;;5.23;3.10;;;12.20;61.40;;;;;;927380;150;27432;-74
2023/05/27 03:25:33;;;;;;;6.73;2.70;;;12.20;61.40;;;;;;951198;147;27440;-74
2023/05/27 03:27:59;;;;;;;5.10;2.50;;;12.20;61.50;;;;;;950282;147;27338;-74
2023/05/27 03:30:25;;;;;;;8.00;2.80;;;12.10;61.50;;;;;;931281;149;27289;-74
2023/05/27 03:32:52;;;;;;;3.80;2.60;;;12.10;61.50;;;;;;943731;148;27324;-73
2023/05/27 03:35:18;;;;;;;4.73;2.80;;;12.20;61.70;;;;;;947349;148;27429;-74
2023/05/27 03:37:45;;;;;;;7.17;3.20;;;12.20;61.80;;;;;;954326;150;27382;-74
2023/05/27 03:40:12;;;;;;;9.40;3.43;;;12.10;61.70;;;;;;953762;147;27647;-74
2023/05/27 03:42:38;;;;;;;7.90;3.30;;;12.20;62.00;;;;;;953566;150;27469;-74
2023/05/27 03:45:05;;;;;;;4.97;2.73;;;12.20;62.10;;;;;;952818;148;27304;-74
2023/05/27 03:47:31;;;;;;;5.40;3.07;;;12.20;62.00;;;;;;953525;150;27335;-74
2023/05/27 03:49:58;;;;;;;6.70;3.60;;;12.20;62.50;;;;;;953506;147;27411;-74
2023/05/27 03:52:25;;;;;;;5.57;2.83;;;12.20;62.00;;;;;;953708;150;27397;-74
2023/05/27 03:54:51;;;;;;;7.10;3.20;;;12.20;62.00;;;;;;953917;150;27328;-74
2023/05/27 03:57:18;;;;;;;7.27;3.17;;;12.30;62.30;;;;;;954302;150;27313;-74
2023/05/27 03:59:44;;;;;;;7.00;3.33;;;12.20;62.30;;;;;;954213;150;27368;-74
2023/05/27 04:02:11;;;;;;;6.47;2.60;;;12.30;62.20;;;;;;953461;150;27366;-74
2023/05/27 04:04:38;;;;;;;8.33;3.10;;;12.30;62.20;;;;;;953933;148;27351;-74
2023/05/27 04:07:04;;;;;;;7.67;3.10;;;12.30;62.30;;;;;;953686;148;27340;-74
2023/05/27 04:09:31;;;;;;;6.70;2.60;;;12.40;62.20;;;;;;953771;150;27486;-74
2023/05/27 04:11:57;;;;;;;7.10;2.67;;;12.40;62.30;;;;;;953238;150;27401;-74
2023/05/27 04:14:24;;;;;;;6.37;3.03;;;12.40;62.30;;;;;;953136;148;27294;-74
2023/05/27 04:16:50;;;;;;;5.27;2.97;;;12.50;62.30;;;;;;953487;150;27303;-74
2023/05/27 04:19:17;;;;;;;6.67;3.30;;;12.50;62.30;;;;;;954068;150;27346;-74
2023/05/27 04:21:44;;;;;;;7.63;3.00;;;12.60;62.40;;;;;;953621;150;27455;-74
2023/05/27 04:24:10;;;;;;;5.00;2.57;;;12.60;62.30;;;;;;953753;150;27386;-75
2023/05/27 04:26:37;;;;;;;5.60;2.80;;;12.70;62.50;;;;;;954352;150;27335;-75
2023/05/27 04:29:04;;;;;;;5.07;2.50;;;12.80;62.30;;;;;;953389;147;27425;-75
2023/05/27 04:31:30;;;;;;;4.60;2.90;;;12.90;62.40;;;;;;954106;150;27437;-75
2023/05/27 04:33:57;;;;;;;9.10;3.50;;;13.00;62.50;;;;;;953407;150;27377;-75
2023/05/27 04:36:26;;;;;;;5.27;2.53;;;13.00;62.50;;;;;;953161;148;27486;-75
2023/05/27 04:38:50;;;;;;;7.03;3.20;;;13.10;62.50;;;;;;953010;150;27328;-76
2023/05/27 04:41:16;;;;;;;6.23;3.00;;;13.20;62.30;;;;;;952967;148;27375;-76
2023/05/27 04:43:43;;;;;;;5.20;3.17;;;13.30;62.40;;;;;;953992;150;27360;-76
2023/05/27 04:46:10;;;;;;;5.37;2.80;;;13.40;62.30;;;;;;953521;148;27320;-76
2023/05/27 04:48:36;;;;;;;6.37;2.57;;;13.50;62.20;;;;;;953498;150;27409;-75
2023/05/27 04:51:03;;;;;;;6.27;3.00;;;13.60;62.20;;;;;;953567;150;27331;-76
2023/05/27 04:53:29;;;;;;;5.13;2.60;;;13.70;62.20;;;;;;953669;150;27457;-76
2023/05/27 04:55:56;;;;;;;6.33;3.20;;;13.90;62.50;;;;;;954128;148;27478;-76
2023/05/27 04:58:23;;;;;;;6.97;2.52;;;14.00;63.20;;;;;;953698;147;27475;-76
2023/05/27 05:00:49;;;;;;;6.22;3.95;;;14.20;63.00;;;;;;953889;148;27398;-76
2023/05/27 05:03:20;;;;;;;8.00;2.80;;;14.50;63.00;;;;;;953690;148;27452;-76
2023/05/27 05:05:42;;;;;;;5.27;2.73;;;14.80;63.20;;;;;;952440;148;27455;-76
2023/05/27 05:08:09;;;;;;;8.00;3.00;;;15.20;63.20;;;;;;953311;150;27474;-75
2023/05/27 05:10:35;;;;;;;3.27;2.40;;;15.70;63.20;;;;;;953688;148;27368;-76
2023/05/27 05:13:02;;;;;;;5.60;2.50;;;16.10;62.80;;;;;;954184;150;27305;-75
2023/05/27 05:15:30;;;;;;;4.97;2.50;;;16.60;62.40;;;;;;953738;147;27366;-76
2023/05/27 05:17:55;;;;;;;5.55;2.62;;;17.10;61.70;;;;;;953875;148;27542;-76
2023/05/27 05:20:22;;;;;;;6.53;2.52;;;17.60;61.10;;;;;;953381;148;27313;-76
2023/05/27 05:22:48;;;;;;;5.95;2.40;;;18.00;60.50;;;;;;954228;150;27770;-77
2023/05/27 05:25:15;;;;;;;5.67;2.62;;;18.50;60.00;;;;;;953992;148;27360;-77
2023/05/27 05:27:42;;;;;;;5.72;2.52;;;19.00;59.40;;;;;;954138;150;27469;-77
2023/05/27 05:30:08;;;;;;;3.90;2.20;;;19.40;58.80;;;;;;953758;148;27376;-77
2023/05/27 05:32:35;;;;;;;5.45;3.00;;;19.90;58.30;;;;;;954010;150;27437;-77
2023/05/27 05:35:03;;;;;;;4.80;2.75;;;20.30;57.60;;;;;;953675;150;27327;-77
2023/05/27 05:37:28;;;;;;;5.37;2.60;;;20.70;57.00;;;;;;948158;149;27544;-75
2023/05/27 05:39:57;;;;;;;4.37;2.40;;;21.20;56.50;;;;;;945218;149;27481;-75
2023/05/27 05:42:21;;;;;;;5.50;2.45;;;21.60;56.10;;;;;;944071;148;27353;-76
2023/05/27 05:44:48;;;;;;;6.50;2.62;;;22.00;55.50;;;;;;946004;151;27397;-76
2023/05/27 05:47:14;;;;;;;6.37;2.30;;;22.40;55.10;;;;;;946104;148;27349;-76
2023/05/27 05:49:41;;;;;;;6.70;2.77;;;22.80;54.50;;;;;;945638;148;27856;-76
2023/05/27 05:52:08;;;;;;;5.33;2.67;;;23.30;53.90;;;;;;945548;148;27309;-76
2023/05/27 05:54:34;;;;;;;3.10;2.05;;;23.70;53.60;;;;;;945575;151;27251;-75
2023/05/27 05:57:02;;;;;;;5.85;3.00;;;24.10;53.00;;;;;;946379;151;27352;-75
2023/05/27 05:59:27;;;;;;;4.58;2.15;;;24.50;52.40;;;;;;945762;151;27332;-75
2023/05/27 06:01:54;;;;;;;4.65;2.55;;;24.90;51.80;;;;;;945778;148;27394;-76
2023/05/27 06:04:21;;;;;;;5.12;2.60;;;25.30;51.30;;;;;;946279;148;27298;-76
2023/05/27 06:06:47;;;;;;;5.33;2.20;;;25.70;50.60;;;;;;945620;151;27442;-76
2023/05/27 06:09:14;;;;;;;6.58;2.37;;;26.00;50.10;;;;;;945897;151;27373;-76
2023/05/27 06:11:40;;;;;;;5.12;2.47;;;26.40;49.70;;;;;;945446;151;27375;-76
2023/05/27 06:14:10;;;;;;;3.27;2.15;;;26.70;49.30;;;;;;945947;151;27409;-76
2023/05/27 06:16:37;;;;;;;5.72;2.35;;;27.10;49.00;;;;;;946040;151;27468;-76
2023/05/27 06:19:03;;;;;;;5.85;2.50;;;27.40;48.60;;;;;;945759;151;27320;-76
2023/05/27 06:21:31;;;;;;;6.55;2.58;;;27.80;48.00;;;;;;946202;151;27242;-76
2023/05/27 06:23:56;;;;;;;4.80;3.08;;;28.20;47.20;;;;;;945183;151;27309;-76
2023/05/27 06:26:23;;;;;;;4.83;2.33;;;28.40;46.50;;;;;;945624;151;27440;-76
2023/05/27 06:28:49;;;;;;;4.83;2.58;;;28.70;45.80;;;;;;945623;148;27340;-76
2023/05/27 06:31:16;;;;;;;4.58;2.58;;;28.80;45.30;;;;;;941903;149;27760;-77
2023/05/27 06:33:42;;;;;;;6.12;2.85;;;29.00;44.90;;;;;;941220;150;27391;-77
2023/05/27 06:36:09;;;;;;;6.50;2.67;;;29.10;44.90;;;;;;941728;151;27382;-77
2023/05/27 06:38:36;;;;;;;6.20;2.67;;;29.40;44.80;;;;;;954166;149;27426;-77
2023/05/27 06:41:02;;;;;;;4.25;2.25;;;29.60;44.20;;;;;;958457;146;27413;-77
2023/05/27 06:43:29;;;;;;;4.55;2.58;;;29.80;43.60;;;;;;958475;146;27394;-78
2023/05/27 06:45:55;;;;;;;4.65;2.25;;;30.00;43.60;;;;;;959169;146;27354;-78
2023/05/27 06:48:22;;;;;;;5.72;2.25;;;30.20;43.60;;;;;;959450;147;27988;-78
2023/05/27 06:50:49;;;;;;;4.85;2.40;;;30.50;43.40;;;;;;958954;146;27425;-76
2023/05/27 06:53:15;;;;;;;4.00;2.27;;;30.90;43.20;;;;;;959902;149;27288;-74
2023/05/27 06:55:42;;;;;;;6.55;2.67;;;31.20;42.90;;;;;;960510;149;27371;-74
2023/05/27 06:58:08;;;;;;;6.17;2.87;;;31.70;42.30;;;;;;960116;149;27691;-73
2023/05/27 07:00:35;;;;;;;4.00;2.55;;;32.00;41.70;;;;;;960424;149;27351;-73
2023/05/27 07:03:01;;;;;;;5.70;2.58;;;32.30;41.20;;;;;;959461;148;27417;-74
2023/05/27 07:05:28;;;;;;;6.50;2.45;;;32.60;40.60;;;;;;960103;146;27246;-73
2023/05/27 07:07:55;;;;;;;5.75;2.60;;;32.90;40.30;;;;;;959936;149;27277;-73
2023/05/27 07:10:21;;;;;;;3.80;2.33;;;33.10;39.90;;;;;;959524;146;26280;-73
2023/05/27 07:12:48;;;;;;;4.40;2.62;;;33.30;39.30;;;;;;959004;149;27474;-73
2023/05/27 07:15:14;;;;;;;4.92;2.40;;;33.50;39.10;;;;;;958203;148;26185;-72
2023/05/27 07:17:41;;;;;;;3.42;2.02;;;33.80;39.00;;;;;;958127;149;26341;-72
2023/05/27 07:20:08;;;;;;;6.30;2.60;;;34.10;39.10;;;;;;959805;149;26209;-73
2023/05/27 07:22:34;;;;;;;6.83;2.70;;;34.40;38.80;;;;;;958531;149;26255;-72
2023/05/27 07:25:01;;;;;;;4.10;2.20;;;34.70;38.50;;;;;;958867;149;26328;-73
2023/05/27 07:27:27;;;;;;;4.08;2.55;;;35.10;38.00;;;;;;959588;146;27313;-73
2023/05/27 07:29:54;;;;;;;4.72;2.27;;;35.50;37.50;;;;;;959481;149;26213;-73
2023/05/27 07:32:22;;;;;;;5.53;2.70;;;35.80;37.10;;;;;;960127;146;26244;-73
2023/05/27 07:34:47;;;;;;;4.08;2.00;;;36.10;36.60;;;;;;957689;149;26333;-73
2023/05/27 07:37:14;;;;;;;4.03;2.47;;;36.40;36.40;;;;;;959503;146;26598;-73
2023/05/27 07:39:40;;;;;;;4.08;2.45;;;36.70;36.10;;;;;;954315;148;26276;-73
2023/05/27 07:42:07;;;;;;;5.08;2.50;;;37.00;35.70;;;;;;951333;149;26193;-73
2023/05/27 07:44:34;;;;;;;3.50;2.30;;;37.40;35.30;;;;;;953692;149;26272;-74
2023/05/27 07:47:00;;;;;;;3.72;2.30;;;37.70;34.70;;;;;;952861;148;26229;-73
2023/05/27 07:49:27;;;;;;;4.62;2.42;;;38.00;34.40;;;;;;953190;148;26285;-73
2023/05/27 07:51:54;;;;;;;3.95;2.12;;;38.30;34.10;;;;;;951195;149;26232;-73
2023/05/27 07:54:20;;;;;;;3.37;2.17;;;38.70;33.90;;;;;;953423;147;26253;-73
2023/05/27 07:56:46;;;;;;;3.70;2.22;;;39.00;33.30;;;;;;953382;148;26281;-73
2023/05/27 07:59:13;;;;;;;3.52;2.17;;;39.30;33.10;;;;;;951947;148;26197;-73
2023/05/27 08:01:40;;;;;;;2.75;1.95;;;39.70;33.00;;;;;;952415;148;26190;-73
2023/05/27 08:04:06;;;;;;;4.80;2.50;;;40.00;32.50;;;;;;952617;148;26637;-73
2023/05/27 08:06:33;;;;;;;4.15;2.50;;;40.30;31.80;;;;;;953830;148;26264;-74
2023/05/27 08:08:59;;;;;;;4.25;2.45;;;40.60;31.80;;;;;;953217;149;26280;-74
2023/05/27 08:11:26;;;;;;;4.35;2.60;;;40.90;31.00;;;;;;952557;148;26271;-74
2023/05/27 08:13:53;;;;;;;4.58;2.58;;;41.00;30.80;;;;;;953776;148;26237;-73
2023/05/27 08:16:19;;;;;;;4.85;2.83;;;41.30;30.40;;;;;;952205;148;26272;-73
2023/05/27 08:18:46;;;;;;;4.47;2.52;;;41.40;30.10;;;;;;953245;148;26269;-74
2023/05/27 08:21:12;;;;;;;3.95;2.50;;;41.70;30.00;;;;;;952907;148;26248;-73
2023/05/27 08:23:39;;;;;;;4.85;2.72;;;41.90;29.70;;;;;;951630;148;26216;-74
2023/05/27 08:26:06;;;;;;;3.47;2.37;;;42.20;29.30;;;;;;951945;149;26361;-73
2023/05/27 08:28:36;;;;;;;5.37;2.70;;;42.40;29.10;;;;;;953040;148;26252;-74
2023/05/27 08:30:59;;;;;;;4.65;2.55;;;42.60;28.90;;;;;;951819;148;26301;-74
2023/05/27 08:33:26;;;;;;;2.50;2.30;;;42.80;28.50;;;;;;952319;148;26266;-74
2023/05/27 08:35:52;;;;;;;3.47;2.42;;;42.90;28.30;;;;;;952349;149;26297;-75
2023/05/27 08:38:18;;;;;;;5.37;2.70;;;43.00;28.10;;;;;;952823;148;26348;-74
2023/05/27 08:40:45;;;;;;;5.33;2.37;;;43.00;28.00;;;;;;969751;147;26250;-73
2023/05/27 08:43:12;;;;;;;3.72;2.50;;;43.00;27.60;;;;;;969039;147;26241;-73
2023/05/27 08:45:40;;;;;;;2.92;2.20;;;43.00;27.60;;;;;;969896;145;26327;-73
2023/05/27 08:48:05;;;;;;;3.52;2.27;;;43.00;27.30;;;;;;966836;147;26270;-73
2023/05/27 08:50:31;;;;;;;4.55;2.65;;;43.00;27.40;;;;;;968938;147;26280;-74
2023/05/27 08:52:58;;;;;;;4.47;2.70;;;43.00;27.60;;;;;;968345;147;26331;-74
2023/05/27 08:55:25;;;;;;;5.08;2.72;;;43.10;26.70;;;;;;969548;147;26203;-74
2023/05/27 08:57:51;;;;;;;6.65;2.80;;;43.00;26.40;;;;;;969679;147;26270;-74
2023/05/27 09:00:18;;;;;;;3.37;2.60;;;42.90;26.40;;;;;;968375;145;26226;-74
2023/05/27 09:02:44;;;;;;;5.10;2.62;;;42.90;26.30;;;;;;968942;145;26207;-74
2023/05/27 09:05:11;;;;;;;5.03;2.40;;;42.80;26.20;;;;;;969211;145;26215;-74
2023/05/27 09:07:38;;;;;;;4.65;2.40;;;42.70;26.00;;;;;;969838;147;26335;-74
2023/05/27 09:10:05;;;;;;;5.40;2.58;;;42.70;26.10;;;;;;967706;145;26353;-74
2023/05/27 09:12:31;;;;;;;4.90;2.45;;;42.60;26.10;;;;;;969277;145;26199;-74
2023/05/27 09:14:57;;;;;;;6.53;3.25;;;42.60;25.90;;;;;;969574;145;26268;-74
2023/05/27 09:17:24;;;;;;;4.65;2.30;;;42.50;25.90;;;;;;969926;145;26160;-74
2023/05/27 09:19:50;;;;;;;5.42;2.60;;;42.60;25.60;;;;;;969984;147;26277;-74
2023/05/27 09:22:26;;;;;;;4.40;2.60;;;42.60;25.30;;;;;;967811;145;26343;-74
2023/05/27 09:24:53;;;;;;;4.30;2.60;;;42.50;25.00;;;;;;968769;145;26312;-74
2023/05/27 09:27:19;;;;;;;4.37;2.83;;;42.30;25.10;;;;;;969520;147;26352;-74
2023/05/27 09:29:45;;;;;;;3.98;2.67;;;42.10;24.90;;;;;;969917;145;26263;-75
2023/05/27 09:32:12;;;;;;;7.25;2.50;;;41.80;25.00;;;;;;969974;147;26336;-75
2023/05/27 09:34:39;;;;;;;4.10;2.60;;;41.60;25.30;;;;;;969543;145;26330;-75
2023/05/27 09:37:05;;;;;;;3.30;1.98;;;41.40;25.20;;;;;;969283;146;26215;-75
2023/05/27 09:39:32;;;;;;;4.90;2.50;;;41.10;25.10;;;;;;969189;147;26232;-75
2023/05/27 09:42:01;;;;;;;4.58;2.50;;;40.90;25.20;;;;;;969800;147;26372;-75
2023/05/27 09:44:28;;;;;;;4.28;2.40;;;40.70;25.20;;;;;;969760;147;26246;-75
2023/05/27 09:46:54;;;;;;;6.15;2.42;;;40.50;25.20;;;;;;969057;147;26233;-75
2023/05/27 09:49:21;;;;;;;4.03;2.45;;;40.20;25.20;;;;;;969765;147;26202;-74
2023/05/27 09:51:48;;;;;;;4.50;2.25;;;39.90;25.20;;;;;;969979;145;26262;-74
2023/05/27 09:54:14;;;;;;;4.95;2.52;;;39.60;25.10;;;;;;969449;147;26202;-74
2023/05/27 09:56:41;;;;;;;3.75;2.33;;;39.30;25.30;;;;;;968463;147;26283;-74
2023/05/27 09:59:07;;;;;;;3.33;2.15;;;39.00;25.30;;;;;;969862;145;26316;-74
2023/05/27 10:01:35;;;;;;;3.75;2.75;;;38.60;25.40;;;;;;969016;145;26748;-74
2023/05/27 10:04:01;;;;;;;3.50;2.22;;;38.10;25.40;;;;;;969661;147;26319;-74
2023/05/27 10:06:27;;;;;;;4.42;2.47;;;37.70;25.50;;;;;;969911;147;26221;-74
2023/05/27 10:08:55;;;;;;;6.00;2.55;;;37.30;25.60;;;;;;969244;145;26579;-74
2023/05/27 10:11:21;;;;;;;4.85;2.70;;;36.80;25.40;;;;;;968924;147;26223;-74
2023/05/27 10:13:47;;;;;;;3.47;2.55;;;36.30;25.70;;;;;;969823;147;26250;-74
2023/05/27 10:16:22;;;;;;;4.65;2.62;;;35.90;25.90;;;;;;969592;145;27291;-74
2023/05/27 10:18:52;;;;;;;4.15;2.33;;;35.40;25.90;;;;;;969819;147;27400;-74
2023/05/27 10:21:16;;;;;;;4.03;2.70;;;35.00;26.10;;;;;;964939;145;27331;-74
2023/05/27 10:23:42;;;;;;;4.22;2.52;;;34.50;26.20;;;;;;966324;145;27448;-74
2023/05/27 10:26:09;;;;;;;5.80;2.67;;;34.10;26.40;;;;;;966439;147;27411;-74
2023/05/27 10:28:36;;;;;;;4.80;2.70;;;33.70;26.60;;;;;;969597;147;27375;-74
2023/05/27 10:31:11;;;;;;;3.35;2.20;;;33.30;26.60;;;;;;967584;145;27235;-74
2023/05/27 10:33:43;;;;;;;5.37;2.70;;;33.00;26.90;;;;;;969161;147;27346;-74
2023/05/27 10:36:10;;;;;;;4.33;2.50;;;32.60;26.90;;;;;;966647;145;27248;-74
2023/05/27 10:38:36;;;;;;;5.45;2.45;;;32.30;27.10;;;;;;969011;147;27306;-74
2023/05/27 10:41:03;;;;;;;5.87;3.02;;;31.80;27.10;;;;;;959197;147;27344;-74
2023/05/27 10:43:30;;;;;;;6.40;2.58;;;31.40;27.40;;;;;;952802;149;27329;-74
2023/05/27 10:46:08;;;;;;;3.67;2.30;;;31.00;27.50;;;;;;952441;149;27314;-74
2023/05/27 10:48:35;;;;;;;5.22;2.90;;;30.60;27.70;;;;;;953105;149;27393;-74
2023/05/27 10:51:02;;;;;;;5.10;3.22;;;30.20;27.80;;;;;;952910;149;27302;-74
2023/05/27 10:53:28;;;;;;;6.22;3.08;;;29.90;28.10;;;;;;952752;149;27409;-74
2023/05/27 10:55:56;;;;;;;5.78;2.47;;;29.60;28.40;;;;;;953720;149;27326;-74
2023/05/27 10:58:21;;;;;;;3.47;2.55;;;29.40;28.50;;;;;;952903;149;27364;-74
2023/05/27 11:00:51;;;;;;;4.40;2.58;;;29.10;28.80;;;;;;953204;149;27363;-74
2023/05/27 11:03:23;;;;;;;5.42;2.75;;;28.90;29.10;;;;;;952976;147;27403;-74
2023/05/27 11:05:47;;;;;;;4.12;2.35;;;28.70;29.30;;;;;;952445;148;27360;-74
2023/05/27 11:08:13;;;;;;;2.90;2.22;;;28.50;29.60;;;;;;953354;148;27333;-74
2023/05/27 11:10:43;;;;;;;4.12;2.00;;;28.40;29.50;;;;;;953052;147;27344;-74
2023/05/27 11:13:10;;;;;;;4.20;2.45;;;28.30;29.50;;;;;;952614;149;27321;-74
2023/05/27 11:15:36;;;;;;;3.02;2.30;;;28.10;29.40;;;;;;952262;148;27317;-74
2023/05/27 11:18:03;;;;;;;4.08;2.33;;;28.00;29.60;;;;;;953124;147;27341;-74
2023/05/27 11:20:38;;;;;;;3.83;2.75;;;27.90;29.90;;;;;;953312;149;27298;-74
2023/05/27 11:23:05;;;;;;;3.92;2.47;;;27.80;29.90;;;;;;952784;147;27734;-76
2023/05/27 11:25:43;;;;;;;3.67;2.70;;;27.70;30.00;;;;;;953478;148;27359;-75
2023/05/27 11:28:16;;;;;;;4.95;2.85;;;27.60;30.10;;;;;;952896;148;27430;-73
2023/05/27 11:30:42;;;;;;;6.12;2.20;;;27.50;30.30;;;;;;952688;148;27406;-74
2023/05/27 11:33:09;;;;;;;4.70;2.70;;;27.40;30.60;;;;;;952882;147;27290;-73
2023/05/27 11:35:35;;;;;;;4.70;2.30;;;27.30;30.90;;;;;;951922;146;27274;-74
2023/05/27 11:38:02;;;;;;;4.17;2.85;;;27.30;30.80;;;;;;953419;148;27368;-73
2023/05/27 11:40:38;;;;;;;3.67;2.33;;;27.20;30.70;;;;;;952835;148;27670;-74
2023/05/27 11:43:03;;;;;;;3.70;2.60;;;27.20;30.80;;;;;;953347;147;27246;-74
2023/05/27 11:45:31;;;;;;;4.15;2.50;;;27.20;30.90;;;;;;952268;148;27356;-74
2023/05/27 11:47:57;;;;;;;4.58;2.47;;;27.20;30.90;;;;;;952672;147;27438;-75
2023/05/27 11:50:23;;;;;;;5.12;2.45;;;27.20;30.80;;;;;;953391;148;27283;-76
2023/05/27 11:52:53;;;;;;;4.45;2.20;;;27.20;30.60;;;;;;952923;146;27285;-75
2023/05/27 11:55:19;;;;;;;3.25;2.35;;;27.20;30.70;;;;;;953552;148;27291;-76
2023/05/27 11:57:46;;;;;;;4.22;2.50;;;27.20;30.80;;;;;;953010;149;27337;-76
2023/05/27 12:00:13;;;;;;;4.15;2.75;;;27.20;30.80;;;;;;952341;148;27328;-75
2023/05/27 12:02:41;;;;;;;5.30;2.42;;;27.20;31.10;;;;;;952236;148;27305;-76
2023/05/27 12:05:07;;;;;;;3.95;2.05;;;27.20;31.00;;;;;;953263;148;27256;-74
2023/05/27 12:07:33;;;;;;;5.75;2.45;;;27.30;31.20;;;;;;952909;149;27430;-74
2023/05/27 12:09:59;;;;;;;4.60;2.62;;;27.30;31.30;;;;;;953064;148;27786;-75
2023/05/27 12:12:26;;;;;;;3.62;2.67;;;27.30;31.30;;;;;;952729;148;27394;-75
2023/05/27 12:14:52;;;;;;;4.65;2.70;;;27.30;31.30;;;;;;952267;148;27304;-74
2023/05/27 12:17:19;;;;;;;3.92;2.52;;;27.30;31.40;;;;;;952351;148;27305;-74
2023/05/27 12:19:45;;;;;;;3.33;2.22;;;27.30;31.20;;;;;;952123;148;27357;-75
2023/05/27 12:22:12;;;;;;;5.55;2.75;;;27.30;31.00;;;;;;952664;148;27359;-74
2023/05/27 12:24:39;;;;;;;4.20;2.90;;;27.30;31.00;;;;;;952283;149;27380;-74
2023/05/27 12:27:05;;;;;;;2.70;2.33;;;27.30;31.10;;;;;;952092;147;27651;-74
2023/05/27 12:29:34;;;;;;;4.40;2.33;;;27.30;31.10;;;;;;953534;148;27453;-74
2023/05/27 12:31:58;;;;;;;3.17;2.58;;;27.20;31.10;;;;;;953104;148;27372;-74
2023/05/27 12:34:25;;;;;;;7.53;2.70;;;27.20;30.90;;;;;;953438;147;27321;-74
2023/05/27 12:36:51;;;;;;;3.35;2.50;;;27.20;30.20;;;;;;953551;147;27391;-74
2023/05/27 12:39:19;;;;;;;4.17;2.30;;;27.20;30.90;;;;;;952561;148;27349;-74
2023/05/27 12:41:45;;;;;;;3.33;2.58;;;27.20;30.70;;;;;;951860;147;27477;-73
2023/05/27 12:44:11;;;;;;;4.35;2.30;;;27.20;30.50;;;;;;953239;149;27290;-74
2023/05/27 12:46:38;;;;;;;3.52;2.27;;;27.20;30.50;;;;;;953675;149;27301;-74